Time;durP1;ratioP1;P1;durP2;ratioP2;P2;SDS_P1;SDS_P2;PMS_P1;PMS_P2;Temp;Humidity;BMP_temperature;BMP_pressure;BME280_temperature;BME280_humidity;BME280_pressure;Samples;Min_cycle;Max_cycle;Signal;HPM_P1;HPM_P2
2022/09/23 00:02:10;;;;;;;10.77;9.07;;;12.40;66.60;;;;;;5029202;28;20740;-78
2022/09/23 00:04:38;;;;;;;9.88;8.88;;;12.30;66.60;;;;;;5032005;28;20042;-78
2022/09/23 00:07:05;;;;;;;11.35;9.40;;;12.30;66.60;;;;;;5032085;28;20492;-78
2022/09/23 00:09:32;;;;;;;11.68;9.65;;;12.30;66.80;;;;;;5032243;28;20478;-78
2022/09/23 00:11:59;;;;;;;10.40;9.30;;;12.30;66.90;;;;;;5032325;28;20104;-78
2022/09/23 00:14:26;;;;;;;11.20;8.95;;;12.30;66.90;;;;;;5033595;28;20360;-78
2022/09/23 00:16:53;;;;;;;11.20;9.48;;;12.30;67.00;;;;;;5032139;28;20054;-78
2022/09/23 00:19:20;;;;;;;11.70;9.13;;;12.20;67.10;;;;;;5031656;28;20058;-78
2022/09/23 00:21:48;;;;;;;10.63;8.95;;;12.10;67.20;;;;;;5031831;28;20104;-78
2022/09/23 00:24:15;;;;;;;10.30;8.83;;;12.10;67.40;;;;;;5031898;28;20049;-78
2022/09/23 00:26:43;;;;;;;9.93;8.88;;;12.10;67.40;;;;;;5015303;28;20277;-78
2022/09/23 00:29:09;;;;;;;10.27;9.18;;;12.10;67.50;;;;;;5015332;28;20521;-78
2022/09/23 00:31:36;;;;;;;11.35;9.90;;;12.00;67.40;;;;;;5031611;28;20125;-78
2022/09/23 00:34:03;;;;;;;12.32;9.73;;;12.00;67.50;;;;;;5031456;28;20053;-78
2022/09/23 00:36:32;;;;;;;11.13;9.27;;;12.00;67.40;;;;;;5031541;28;20638;-78
2022/09/23 00:39:02;;;;;;;10.35;9.25;;;12.00;67.50;;;;;;5031448;28;20253;-78
2022/09/23 00:41:30;;;;;;;11.00;9.90;;;11.90;67.60;;;;;;5031820;28;20053;-78
2022/09/23 00:43:58;;;;;;;11.75;10.55;;;11.90;67.70;;;;;;5032895;28;20157;-78
2022/09/23 00:46:29;;;;;;;12.98;10.60;;;11.90;67.80;;;;;;5031392;28;20046;-78
2022/09/23 00:49:01;;;;;;;13.80;11.37;;;11.90;67.90;;;;;;5032589;28;20056;-78
2022/09/23 00:51:33;;;;;;;14.00;11.02;;;11.90;68.00;;;;;;5029650;28;20254;-78
2022/09/23 00:54:02;;;;;;;12.45;11.10;;;11.80;68.00;;;;;;5012777;28;20136;-78
2022/09/23 00:56:31;;;;;;;14.35;12.27;;;11.70;68.00;;;;;;5012923;28;20592;-78
2022/09/23 00:58:58;;;;;;;14.20;11.95;;;11.70;68.10;;;;;;5012534;28;20054;-78
2022/09/23 01:01:25;;;;;;;15.13;12.23;;;11.70;68.20;;;;;;5011124;28;20050;-78
2022/09/23 01:03:55;;;;;;;12.82;11.48;;;11.60;68.50;;;;;;5011036;28;20261;-78
2022/09/23 01:06:21;;;;;;;13.88;11.38;;;11.50;68.50;;;;;;5011443;28;20101;-78
2022/09/23 01:08:49;;;;;;;16.65;11.95;;;11.50;68.50;;;;;;5011066;28;20046;-78
2022/09/23 01:11:36;;;;;;;13.70;11.68;;;11.50;68.50;;;;;;5012732;28;20060;-77
2022/09/23 01:14:21;;;;;;;13.47;11.57;;;11.50;68.60;;;;;;5010616;28;20057;-78
2022/09/23 01:16:54;;;;;;;13.35;11.55;;;11.50;68.70;;;;;;5011101;28;20282;-78
2022/09/23 01:19:42;;;;;;;12.75;11.13;;;11.50;68.80;;;;;;5012544;28;20054;-78
2022/09/23 01:22:15;;;;;;;13.38;11.98;;;11.50;68.90;;;;;;5011466;28;20488;-78
2022/09/23 01:25:00;;;;;;;13.30;11.50;;;11.50;68.80;;;;;;5012885;28;20092;-78
2022/09/23 01:27:56;;;;;;;12.47;11.13;;;11.50;68.80;;;;;;5011027;28;20048;-78
2022/09/23 01:30:37;;;;;;;12.95;11.55;;;11.50;68.80;;;;;;5012118;28;20957;-78
2022/09/23 01:33:10;;;;;;;13.30;11.73;;;11.50;68.90;;;;;;4994882;28;20050;-78
2022/09/23 01:35:47;;;;;;;13.32;11.40;;;11.50;69.00;;;;;;5011149;28;20528;-78
2022/09/23 01:38:32;;;;;;;13.45;11.45;;;11.50;69.10;;;;;;5010968;28;20046;-78
2022/09/23 01:41:03;;;;;;;12.90;11.60;;;11.50;69.00;;;;;;5010562;28;20046;-78
2022/09/23 01:43:37;;;;;;;13.07;11.13;;;11.50;69.20;;;;;;5011012;28;20282;-78
2022/09/23 01:46:10;;;;;;;13.65;11.43;;;11.50;69.30;;;;;;5010745;28;20128;-78
2022/09/23 01:48:42;;;;;;;11.50;10.30;;;11.50;69.30;;;;;;5010621;28;20058;-77
2022/09/23 01:51:14;;;;;;;13.75;11.50;;;11.50;69.30;;;;;;5010449;28;20084;-77
2022/09/23 01:53:47;;;;;;;14.70;11.60;;;11.50;69.20;;;;;;4994134;28;20043;-77
2022/09/23 01:56:20;;;;;;;12.60;11.30;;;11.50;69.20;;;;;;5010519;28;20265;-77
2022/09/23 01:58:53;;;;;;;13.73;11.73;;;11.40;69.20;;;;;;5010543;28;20524;-77
2022/09/23 02:01:28;;;;;;;13.73;10.95;;;11.40;69.30;;;;;;4994716;28;20501;-77
2022/09/23 02:04:02;;;;;;;13.30;11.18;;;11.40;69.40;;;;;;5010894;28;20121;-77
2022/09/23 02:06:33;;;;;;;14.53;11.10;;;11.40;69.30;;;;;;5010551;28;20047;-77
2022/09/23 02:09:04;;;;;;;13.57;11.30;;;11.30;69.40;;;;;;5012152;28;20794;-77
2022/09/23 02:11:35;;;;;;;12.85;11.35;;;11.30;69.50;;;;;;5012166;28;20074;-77
2022/09/23 02:14:08;;;;;;;13.65;11.32;;;11.30;69.50;;;;;;5010411;28;20101;-77
2022/09/23 02:16:41;;;;;;;13.80;10.90;;;11.30;69.50;;;;;;5009782;28;20074;-77
2022/09/23 02:19:13;;;;;;;12.87;10.63;;;11.30;69.60;;;;;;5009778;28;20606;-78
2022/09/23 02:21:42;;;;;;;12.10;10.80;;;11.20;69.60;;;;;;5011645;28;20278;-77
2022/09/23 02:24:14;;;;;;;12.73;11.32;;;11.20;69.60;;;;;;5011944;28;20050;-77
2022/09/23 02:26:49;;;;;;;13.52;11.88;;;11.20;69.80;;;;;;5009231;28;21015;-77
2022/09/23 02:29:22;;;;;;;13.93;11.50;;;11.20;69.80;;;;;;5009714;28;20131;-78
2022/09/23 02:31:57;;;;;;;13.03;11.10;;;11.20;69.80;;;;;;5010105;28;20128;-78
2022/09/23 02:34:43;;;;;;;14.57;11.02;;;11.20;69.80;;;;;;5010074;28;20268;-78
2022/09/23 02:37:23;;;;;;;15.52;10.93;;;11.20;69.50;;;;;;5011352;28;20129;-78
2022/09/23 02:39:57;;;;;;;12.90;10.93;;;11.10;69.40;;;;;;5009628;28;20081;-78
2022/09/23 02:42:33;;;;;;;13.43;11.00;;;11.20;69.20;;;;;;5011433;28;20050;-78
2022/09/23 02:45:00;;;;;;;12.43;10.60;;;11.20;69.30;;;;;;5009866;28;20089;-78
2022/09/23 02:47:33;;;;;;;12.85;11.45;;;11.10;69.20;;;;;;5009657;28;20247;-78
2022/09/23 02:50:01;;;;;;;14.27;11.32;;;11.10;69.40;;;;;;5009390;28;20193;-78
2022/09/23 02:52:29;;;;;;;13.95;11.65;;;11.10;69.40;;;;;;5009852;28;20046;-78
2022/09/23 02:54:56;;;;;;;12.50;11.20;;;11.10;69.20;;;;;;5011584;28;20578;-78
2022/09/23 02:57:23;;;;;;;13.00;10.60;;;11.10;69.20;;;;;;5011160;28;20069;-78
2022/09/23 02:59:50;;;;;;;13.45;11.68;;;11.10;69.20;;;;;;5009413;28;20270;-78
2022/09/23 03:02:58;;;;;;;14.93;11.82;;;11.10;69.30;;;;;;5010977;28;20121;-78
2022/09/23 03:05:29;;;;;;;15.10;11.45;;;11.10;69.20;;;;;;5005196;28;20050;-78
2022/09/23 03:08:11;;;;;;;13.00;10.63;;;11.10;69.50;;;;;;5009464;28;20317;-78
2022/09/23 03:10:52;;;;;;;12.53;10.53;;;11.10;69.60;;;;;;5010796;28;20146;-78
2022/09/23 03:13:30;;;;;;;13.75;10.65;;;11.00;69.70;;;;;;5011154;28;20254;-78
2022/09/23 03:16:04;;;;;;;12.85;11.15;;;11.00;69.80;;;;;;5009605;28;20058;-78
2022/09/23 03:18:40;;;;;;;13.32;11.52;;;11.00;69.80;;;;;;5010888;28;20081;-78
2022/09/23 03:21:09;;;;;;;13.80;11.30;;;11.00;69.80;;;;;;5008673;28;20109;-78
2022/09/23 03:23:40;;;;;;;13.63;11.57;;;11.00;69.90;;;;;;5009435;28;20092;-78
2022/09/23 03:26:11;;;;;;;14.13;11.48;;;11.00;70.00;;;;;;5009331;28;20361;-78
2022/09/23 03:28:42;;;;;;;12.60;10.93;;;11.00;70.00;;;;;;5010989;28;20058;-78
2022/09/23 03:31:11;;;;;;;12.52;10.77;;;11.00;69.80;;;;;;5010011;28;20081;-77
2022/09/23 03:33:45;;;;;;;13.60;11.45;;;11.00;69.90;;;;;;5009109;28;20851;-77
2022/09/23 03:39:04;;;;;;;13.65;10.77;;;10.90;69.90;;;;;;4995854;28;20305;-77
2022/09/23 03:41:35;;;;;;;12.82;10.45;;;10.90;70.00;;;;;;5012800;28;20500;-77
2022/09/23 03:44:02;;;;;;;12.68;11.18;;;10.90;69.90;;;;;;5012436;28;20056;-77
2022/09/23 03:46:34;;;;;;;13.65;11.32;;;10.90;69.70;;;;;;5014328;28;20054;-77
2022/09/23 03:49:09;;;;;;;13.50;10.67;;;10.90;69.60;;;;;;5012165;28;20053;-77
2022/09/23 03:51:36;;;;;;;13.35;11.38;;;10.90;69.50;;;;;;5012187;28;20274;-77
2022/09/23 03:54:03;;;;;;;14.10;11.13;;;10.90;69.40;;;;;;5013898;28;20073;-77
2022/09/23 03:56:29;;;;;;;13.15;10.82;;;10.90;69.30;;;;;;5013949;28;20074;-77
2022/09/23 03:58:56;;;;;;;12.60;10.95;;;10.90;69.00;;;;;;5011993;28;20531;-77
2022/09/23 04:01:23;;;;;;;12.57;10.63;;;10.90;69.20;;;;;;5012812;28;20042;-77
2022/09/23 04:03:52;;;;;;;13.95;11.05;;;10.90;69.20;;;;;;5012546;28;20568;-77
2022/09/23 04:06:20;;;;;;;13.02;11.02;;;10.90;69.10;;;;;;5012676;28;20051;-77
2022/09/23 04:08:47;;;;;;;14.63;11.20;;;10.90;69.20;;;;;;5013716;28;20133;-77
2022/09/23 04:11:14;;;;;;;13.02;10.60;;;10.80;69.10;;;;;;5012238;28;20050;-77
2022/09/23 04:13:41;;;;;;;12.67;10.57;;;10.80;69.10;;;;;;5012399;28;20052;-77
2022/09/23 04:16:07;;;;;;;13.98;11.43;;;10.80;69.10;;;;;;5013421;28;20376;-77
2022/09/23 04:18:35;;;;;;;13.80;10.70;;;10.80;69.10;;;;;;5013694;28;20506;-77
2022/09/23 04:21:02;;;;;;;14.10;10.90;;;10.80;69.10;;;;;;5013085;28;20060;-78
2022/09/23 04:23:30;;;;;;;15.05;11.02;;;10.80;69.20;;;;;;5012186;28;20157;-78
2022/09/23 04:25:57;;;;;;;13.43;11.23;;;10.80;69.20;;;;;;4995633;28;20177;-78
2022/09/23 04:28:24;;;;;;;11.70;10.15;;;10.80;69.00;;;;;;5013572;28;20250;-78
2022/09/23 04:30:52;;;;;;;13.07;10.75;;;10.80;69.00;;;;;;5013052;28;20062;-78
2022/09/23 04:33:19;;;;;;;14.98;11.38;;;10.80;69.00;;;;;;5012432;28;20050;-78
2022/09/23 04:35:50;;;;;;;13.60;10.15;;;10.80;69.00;;;;;;4995695;28;20046;-78
2022/09/23 04:38:16;;;;;;;13.37;10.83;;;10.80;69.00;;;;;;5011780;28;20061;-78
2022/09/23 04:40:45;;;;;;;13.98;10.90;;;10.80;68.80;;;;;;5011406;28;20391;-78
2022/09/23 04:43:12;;;;;;;12.98;10.50;;;10.80;68.90;;;;;;5013198;28;20058;-78
2022/09/23 04:45:39;;;;;;;15.00;10.23;;;10.70;68.90;;;;;;5011576;28;20051;-78
2022/09/23 04:48:06;;;;;;;14.88;11.18;;;10.70;68.90;;;;;;4993957;28;20473;-78
2022/09/23 04:50:33;;;;;;;14.47;10.87;;;10.70;69.00;;;;;;5012743;28;20062;-78
2022/09/23 04:53:01;;;;;;;15.45;10.80;;;10.70;69.10;;;;;;5011680;28;20261;-78
2022/09/23 04:55:28;;;;;;;13.27;10.10;;;10.70;69.10;;;;;;4993922;28;20133;-78
2022/09/23 04:57:56;;;;;;;14.88;10.70;;;10.70;69.20;;;;;;5011229;28;20054;-78
2022/09/23 05:00:25;;;;;;;12.57;10.60;;;10.60;69.20;;;;;;5012407;28;20065;-78
2022/09/23 05:02:52;;;;;;;13.13;10.77;;;10.60;69.10;;;;;;5010384;28;20137;-78
2022/09/23 05:05:19;;;;;;;13.50;10.55;;;10.60;69.20;;;;;;5010367;28;20333;-78
2022/09/23 05:07:46;;;;;;;14.93;11.38;;;10.60;69.20;;;;;;5012564;28;20050;-78
2022/09/23 05:10:14;;;;;;;15.15;11.20;;;10.60;69.40;;;;;;5010619;28;20170;-78
2022/09/23 05:12:41;;;;;;;14.13;11.02;;;10.60;69.60;;;;;;5011060;28;20050;-78
2022/09/23 05:15:09;;;;;;;14.10;11.17;;;10.60;69.60;;;;;;4994992;28;20121;-78
2022/09/23 05:17:36;;;;;;;16.08;11.25;;;10.60;69.70;;;;;;5011296;28;20710;-78
2022/09/23 05:20:04;;;;;;;12.75;10.93;;;10.60;69.90;;;;;;5010639;28;20581;-78
2022/09/23 05:22:31;;;;;;;13.60;10.32;;;10.50;70.10;;;;;;5012498;28;20077;-78
2022/09/23 05:24:58;;;;;;;13.73;11.32;;;10.50;70.20;;;;;;5012636;28;20088;-78
2022/09/23 05:27:25;;;;;;;12.57;10.70;;;10.50;70.10;;;;;;5010565;28;20162;-78
2022/09/23 05:29:52;;;;;;;15.23;11.00;;;10.50;70.20;;;;;;5010691;28;20282;-78
2022/09/23 05:32:21;;;;;;;15.20;12.20;;;10.50;70.20;;;;;;5010499;28;20050;-78
2022/09/23 05:34:47;;;;;;;13.90;10.98;;;10.50;70.40;;;;;;5012405;28;20058;-78
2022/09/23 05:37:14;;;;;;;12.65;10.77;;;10.50;70.50;;;;;;5011850;28;20161;-78
2022/09/23 05:39:41;;;;;;;13.40;11.00;;;10.50;70.60;;;;;;5010691;28;20080;-78
2022/09/23 05:42:08;;;;;;;12.48;10.27;;;10.50;70.70;;;;;;5012289;28;20255;-78
2022/09/23 05:44:35;;;;;;;14.32;11.40;;;10.50;70.70;;;;;;5010600;28;20544;-78
2022/09/23 05:47:02;;;;;;;13.57;11.15;;;10.40;70.70;;;;;;5010502;28;20523;-78
2022/09/23 05:49:30;;;;;;;14.20;10.43;;;10.40;70.80;;;;;;5009941;28;20050;-78
2022/09/23 05:51:58;;;;;;;22.13;10.97;;;10.40;70.90;;;;;;5010506;28;20517;-78
2022/09/23 05:54:25;;;;;;;14.90;10.80;;;10.40;70.80;;;;;;5010657;28;20293;-77
2022/09/23 05:56:52;;;;;;;13.10;10.85;;;10.40;70.70;;;;;;5010417;28;20122;-77
2022/09/23 05:59:19;;;;;;;13.52;11.15;;;10.40;70.70;;;;;;5009824;28;20050;-77
2022/09/23 06:01:46;;;;;;;15.15;11.30;;;10.40;70.70;;;;;;5012052;28;20058;-77
2022/09/23 06:04:14;;;;;;;13.67;11.33;;;10.40;70.70;;;;;;5010502;28;20142;-77
2022/09/23 06:06:43;;;;;;;13.05;10.73;;;10.40;70.70;;;;;;5010618;28;20278;-77
2022/09/23 06:09:13;;;;;;;13.25;10.80;;;10.50;70.90;;;;;;5010120;28;20137;-77
2022/09/23 06:11:40;;;;;;;14.43;10.57;;;10.40;70.80;;;;;;5011919;28;20096;-77
2022/09/23 06:14:11;;;;;;;14.60;11.43;;;10.40;70.70;;;;;;5011662;28;20054;-77
2022/09/23 06:16:38;;;;;;;14.93;11.23;;;10.50;70.80;;;;;;5011812;28;20050;-77
2022/09/23 06:19:05;;;;;;;15.10;10.45;;;10.50;70.70;;;;;;5009960;28;20741;-77
2022/09/23 06:21:33;;;;;;;15.65;11.55;;;10.50;71.00;;;;;;5010025;28;20048;-77
2022/09/23 06:24:02;;;;;;;15.55;11.65;;;10.50;71.10;;;;;;4993810;28;20125;-77
2022/09/23 06:26:31;;;;;;;16.38;11.55;;;10.50;71.50;;;;;;5011322;28;20197;-77
2022/09/23 06:28:58;;;;;;;13.83;11.23;;;10.50;71.60;;;;;;5009854;28;20061;-77
2022/09/23 06:31:25;;;;;;;14.38;10.40;;;10.50;72.00;;;;;;5009876;28;20341;-77
2022/09/23 06:33:52;;;;;;;15.35;11.43;;;10.40;72.20;;;;;;5009881;28;20042;-77
2022/09/23 06:36:19;;;;;;;13.98;10.35;;;10.40;72.30;;;;;;4992669;28;20046;-77
2022/09/23 06:38:48;;;;;;;14.27;11.00;;;10.40;72.60;;;;;;5009406;28;20065;-77
2022/09/23 06:41:16;;;;;;;17.00;11.63;;;10.40;72.70;;;;;;4992424;28;20125;-77
2022/09/23 06:43:43;;;;;;;12.43;9.88;;;10.40;72.90;;;;;;4989357;28;20375;-78
2022/09/23 06:46:14;;;;;;;15.38;10.02;;;10.40;73.00;;;;;;5002362;28;20050;-78
2022/09/23 06:48:42;;;;;;;13.93;11.05;;;10.40;73.30;;;;;;5022655;28;20061;-78
2022/09/23 06:51:11;;;;;;;15.32;10.30;;;10.30;73.30;;;;;;5009078;28;20050;-78
2022/09/23 06:53:38;;;;;;;14.33;10.70;;;10.30;73.60;;;;;;5009414;28;20126;-78
2022/09/23 06:56:07;;;;;;;13.85;11.10;;;10.30;73.60;;;;;;5009663;28;20736;-78
2022/09/23 06:58:36;;;;;;;14.68;10.32;;;10.30;73.80;;;;;;5010519;28;20058;-78
2022/09/23 07:01:08;;;;;;;13.82;10.52;;;10.30;73.90;;;;;;5003909;28;20046;-78
2022/09/23 07:03:37;;;;;;;14.05;10.80;;;10.40;74.00;;;;;;5025718;28;20050;-78
2022/09/23 07:06:05;;;;;;;14.63;10.13;;;10.40;74.20;;;;;;5009921;28;20141;-78
2022/09/23 07:08:33;;;;;;;14.05;10.55;;;10.40;74.40;;;;;;5011122;28;20277;-78
2022/09/23 07:11:02;;;;;;;14.68;11.05;;;10.40;74.50;;;;;;5008801;28;20058;-78
2022/09/23 07:13:31;;;;;;;14.75;10.35;;;10.40;74.60;;;;;;5009442;28;20047;-78
2022/09/23 07:16:01;;;;;;;15.18;11.10;;;10.40;74.70;;;;;;5010738;28;20607;-78
2022/09/23 07:18:31;;;;;;;13.23;9.77;;;10.50;74.90;;;;;;5009666;28;20042;-79
2022/09/23 07:21:06;;;;;;;13.43;10.05;;;10.50;74.80;;;;;;5025929;28;20257;-78
2022/09/23 07:23:33;;;;;;;12.48;9.95;;;10.50;74.80;;;;;;5011060;28;20545;-78
2022/09/23 07:26:00;;;;;;;15.23;10.68;;;10.50;74.90;;;;;;5009465;28;20047;-78
2022/09/23 07:28:28;;;;;;;13.23;9.93;;;10.60;75.10;;;;;;5009244;28;20053;-78
2022/09/23 07:30:55;;;;;;;12.20;9.43;;;10.60;75.00;;;;;;5009313;28;20082;-78
2022/09/23 07:33:23;;;;;;;13.40;10.18;;;10.60;75.20;;;;;;5009206;28;20259;-78
2022/09/23 07:35:50;;;;;;;13.27;10.25;;;10.60;75.20;;;;;;4992829;28;20043;-78
2022/09/23 07:38:17;;;;;;;15.55;11.10;;;10.60;75.30;;;;;;5010520;28;20054;-78
2022/09/23 07:40:44;;;;;;;17.58;11.00;;;10.70;75.60;;;;;;5009264;28;20046;-78
2022/09/23 07:43:12;;;;;;;22.63;15.70;;;10.70;75.50;;;;;;5008658;28;20527;-79
2022/09/23 07:45:42;;;;;;;14.25;10.95;;;10.70;75.50;;;;;;5008104;28;20627;-79
2022/09/23 07:48:10;;;;;;;14.00;10.45;;;10.80;75.50;;;;;;5009509;28;20129;-79
2022/09/23 07:50:40;;;;;;;15.88;11.13;;;10.80;75.50;;;;;;5007973;28;20058;-77
2022/09/23 07:53:07;;;;;;;16.30;11.13;;;10.80;75.70;;;;;;5007028;28;20149;-77
2022/09/23 07:55:34;;;;;;;18.03;11.50;;;10.90;75.60;;;;;;5006540;28;20655;-78
2022/09/23 07:58:02;;;;;;;16.60;10.15;;;10.90;75.70;;;;;;5007579;28;20676;-78
2022/09/23 08:00:29;;;;;;;14.75;10.27;;;10.90;75.80;;;;;;5006912;28;20046;-77
2022/09/23 08:02:55;;;;;;;13.45;10.32;;;11.00;75.70;;;;;;5006299;28;20138;-77
2022/09/23 08:05:23;;;;;;;13.55;10.07;;;11.00;75.90;;;;;;5007018;28;20517;-77
2022/09/23 08:07:52;;;;;;;16.77;10.67;;;11.00;75.90;;;;;;5009493;28;20053;-77
2022/09/23 08:10:19;;;;;;;13.13;10.05;;;11.10;76.00;;;;;;5008540;28;20258;-77
2022/09/23 08:12:47;;;;;;;13.18;10.05;;;11.10;76.10;;;;;;5008674;28;20046;-77
2022/09/23 08:15:16;;;;;;;13.73;10.27;;;11.10;76.20;;;;;;5008923;28;20074;-77
2022/09/23 08:17:43;;;;;;;15.10;10.23;;;11.10;76.00;;;;;;5010608;28;20066;-77
2022/09/23 08:20:42;;;;;;;14.67;10.67;;;11.20;76.00;;;;;;5008716;28;20519;-77
2022/09/23 08:23:00;;;;;;;14.20;10.63;;;11.30;76.00;;;;;;5007443;28;20277;-76
2022/09/23 08:25:27;;;;;;;17.13;10.35;;;11.30;76.10;;;;;;5011926;28;20093;-77
2022/09/23 08:27:54;;;;;;;14.52;9.40;;;11.40;76.00;;;;;;5013508;28;20051;-76
2022/09/23 08:30:21;;;;;;;14.88;10.73;;;11.40;76.00;;;;;;5011306;28;20447;-76
2022/09/23 08:32:50;;;;;;;13.53;9.60;;;11.40;76.00;;;;;;5011800;28;20046;-76
2022/09/23 08:35:19;;;;;;;13.57;9.73;;;11.50;76.10;;;;;;5011136;28;20258;-78
2022/09/23 08:37:46;;;;;;;13.38;9.82;;;11.50;76.00;;;;;;5011523;28;20054;-77
2022/09/23 08:40:15;;;;;;;14.10;10.20;;;11.50;76.20;;;;;;4991538;28;20051;-77
2022/09/23 08:42:44;;;;;;;13.25;10.20;;;11.60;76.00;;;;;;5010548;28;20050;-77
2022/09/23 08:45:18;;;;;;;12.60;9.27;;;11.70;76.10;;;;;;5008258;28;20549;-76
2022/09/23 08:47:52;;;;;;;12.05;9.20;;;11.70;76.10;;;;;;5009947;28;20394;-76
2022/09/23 08:50:21;;;;;;;12.80;9.57;;;11.70;76.20;;;;;;5008648;28;20603;-76
2022/09/23 08:52:52;;;;;;;12.75;9.25;;;11.70;76.20;;;;;;5010748;28;20092;-76
2022/09/23 08:55:29;;;;;;;14.77;10.00;;;11.80;76.20;;;;;;5012018;28;20051;-77
2022/09/23 08:58:07;;;;;;;14.37;9.43;;;11.90;76.20;;;;;;5010865;28;20057;-75
2022/09/23 09:00:40;;;;;;;13.65;9.57;;;11.90;76.20;;;;;;5009926;28;20281;-75
2022/09/23 09:03:19;;;;;;;11.25;8.77;;;12.00;76.10;;;;;;5012628;28;20054;-76
2022/09/23 09:05:47;;;;;;;14.35;10.32;;;12.00;76.10;;;;;;5011745;28;20643;-76
2022/09/23 09:08:15;;;;;;;13.25;9.90;;;12.10;76.20;;;;;;5027841;28;20050;-77
2022/09/23 09:10:46;;;;;;;13.83;9.47;;;12.10;76.10;;;;;;5010786;28;20062;-76
2022/09/23 09:13:27;;;;;;;13.60;9.32;;;12.20;76.10;;;;;;4994520;28;20286;-77
2022/09/23 09:16:10;;;;;;;12.23;9.27;;;12.30;75.90;;;;;;5010756;28;20517;-77
2022/09/23 09:18:47;;;;;;;12.90;9.52;;;12.30;75.90;;;;;;5009030;28;20050;-77
2022/09/23 09:21:14;;;;;;;14.20;9.30;;;12.40;75.80;;;;;;5010539;28;20079;-76
2022/09/23 09:23:49;;;;;;;13.40;9.27;;;12.50;75.80;;;;;;5010931;28;20061;-77
2022/09/23 09:26:21;;;;;;;12.20;9.45;;;12.50;75.60;;;;;;5010939;28;20250;-77
2022/09/23 09:28:52;;;;;;;15.40;9.68;;;12.50;75.50;;;;;;5011412;28;20050;-77
2022/09/23 09:31:26;;;;;;;14.32;9.77;;;12.50;75.50;;;;;;4993209;28;20489;-76
2022/09/23 09:33:56;;;;;;;12.65;8.98;;;12.60;75.50;;;;;;5010694;28;20137;-77
2022/09/23 09:36:35;;;;;;;13.93;9.33;;;12.70;75.20;;;;;;5011400;28;20128;-77
2022/09/23 09:39:02;;;;;;;13.18;9.85;;;12.80;75.30;;;;;;5010673;28;20674;-77
2022/09/23 09:41:31;;;;;;;12.32;9.00;;;12.80;75.30;;;;;;5015032;28;20110;-77
2022/09/23 09:44:02;;;;;;;13.27;9.18;;;12.90;75.30;;;;;;5010502;28;20054;-77
2022/09/23 09:46:43;;;;;;;15.65;9.30;;;13.00;75.30;;;;;;5010762;28;20058;-76
2022/09/23 09:49:22;;;;;;;12.40;9.43;;;13.10;75.30;;;;;;4989168;28;20061;-76
2022/09/23 09:51:49;;;;;;;14.98;9.60;;;13.10;75.10;;;;;;4989650;28;20720;-77
2022/09/23 09:54:21;;;;;;;13.02;8.75;;;13.20;75.00;;;;;;4991191;28;20051;-76
2022/09/23 09:56:52;;;;;;;11.85;8.98;;;13.30;74.90;;;;;;4989550;28;20043;-76
2022/09/23 09:59:25;;;;;;;15.43;9.00;;;13.30;74.70;;;;;;5014160;28;20140;-76
2022/09/23 10:02:12;;;;;;;12.13;8.23;;;13.50;74.70;;;;;;5011426;28;20128;-76
2022/09/23 10:04:40;;;;;;;13.45;8.25;;;13.50;74.60;;;;;;5010415;28;20282;-76
2022/09/23 10:07:11;;;;;;;13.25;8.90;;;13.60;74.20;;;;;;5009303;28;20046;-76
2022/09/23 10:09:41;;;;;;;13.52;8.70;;;13.70;73.80;;;;;;5008423;28;20051;-76
2022/09/23 10:12:17;;;;;;;14.40;10.07;;;13.70;73.50;;;;;;5010186;28;20493;-76
2022/09/23 10:14:45;;;;;;;12.83;9.03;;;13.90;73.30;;;;;;5009062;28;20053;-76
2022/09/23 10:17:19;;;;;;;14.60;9.35;;;13.90;73.00;;;;;;5008489;28;20754;-77
2022/09/23 10:19:48;;;;;;;13.65;9.60;;;13.90;72.80;;;;;;5004568;28;20519;-76
2022/09/23 10:22:21;;;;;;;11.57;8.30;;;14.00;72.80;;;;;;5024857;28;20050;-76
2022/09/23 10:24:50;;;;;;;13.48;9.07;;;14.00;72.60;;;;;;5010470;28;20058;-76
2022/09/23 10:27:28;;;;;;;12.10;8.73;;;14.00;72.50;;;;;;5006339;28;20767;-76
2022/09/23 10:29:57;;;;;;;14.10;9.35;;;14.10;72.50;;;;;;5009864;28;20802;-76
2022/09/23 10:32:27;;;;;;;16.42;10.65;;;14.10;72.50;;;;;;5011437;28;20068;-76
2022/09/23 10:34:57;;;;;;;15.60;10.30;;;14.20;72.40;;;;;;5009445;28;20050;-76
2022/09/23 10:37:37;;;;;;;12.27;8.60;;;14.20;72.20;;;;;;5009994;28;20727;-77
2022/09/23 10:49:42;;;;;;;13.38;9.30;;;14.40;71.70;;;;;;5008856;28;20612;-77
2022/09/23 10:52:23;;;;;;;17.05;10.55;;;14.40;71.70;;;;;;4959395;28;20066;-77
2022/09/23 10:55:01;;;;;;;14.93;9.60;;;14.50;71.50;;;;;;5009829;28;20162;-77
2022/09/23 10:57:45;;;;;;;19.95;10.82;;;14.50;71.60;;;;;;5008513;28;20741;-77
2022/09/23 11:00:22;;;;;;;15.00;9.75;;;14.50;71.60;;;;;;5007527;28;20145;-76
2022/09/23 11:03:09;;;;;;;12.77;9.07;;;14.60;71.40;;;;;;5006639;28;20885;-76
2022/09/23 11:05:43;;;;;;;12.60;8.38;;;14.60;71.00;;;;;;5007372;28;20492;-76
2022/09/23 11:08:29;;;;;;;12.73;8.30;;;14.60;70.90;;;;;;5004628;28;20050;-76
2022/09/23 11:11:10;;;;;;;13.15;8.52;;;14.60;70.70;;;;;;5005616;28;20280;-76
2022/09/23 11:13:51;;;;;;;14.25;8.90;;;14.60;70.80;;;;;;5007818;28;20118;-77
2022/09/23 11:16:35;;;;;;;12.13;8.80;;;14.70;70.80;;;;;;5009419;28;20133;-77
2022/09/23 11:19:32;;;;;;;12.50;8.95;;;14.70;70.90;;;;;;5006207;28;20536;-76
2022/09/23 11:22:20;;;;;;;17.80;11.80;;;14.70;71.00;;;;;;5009071;28;20055;-77
2022/09/23 11:25:07;;;;;;;13.20;9.05;;;14.70;70.90;;;;;;5007420;28;20373;-78
2022/09/23 11:27:45;;;;;;;13.07;9.80;;;14.80;71.10;;;;;;4991393;28;20046;-78
2022/09/23 11:30:15;;;;;;;14.48;11.90;;;14.80;71.20;;;;;;5007772;28;20138;-78
2022/09/23 11:33:13;;;;;;;12.40;9.05;;;14.80;71.20;;;;;;5007637;28;20057;-78
2022/09/23 11:35:44;;;;;;;13.97;9.87;;;14.80;71.20;;;;;;5009056;28;20077;-77
2022/09/23 11:38:17;;;;;;;14.35;10.38;;;14.80;71.20;;;;;;5021946;28;20712;-78
2022/09/23 11:40:53;;;;;;;13.50;9.60;;;14.80;71.20;;;;;;5010203;28;20596;-78
2022/09/23 11:43:23;;;;;;;13.82;8.93;;;14.90;71.40;;;;;;5010140;28;20059;-78
2022/09/23 11:45:57;;;;;;;14.32;9.43;;;14.90;71.50;;;;;;5008550;28;20057;-78
2022/09/23 11:48:33;;;;;;;14.93;10.03;;;14.90;71.60;;;;;;4991940;28;20133;-78
2022/09/23 11:51:03;;;;;;;14.80;9.70;;;14.90;71.70;;;;;;4990962;28;20739;-78
2022/09/23 11:53:40;;;;;;;14.48;10.10;;;15.00;71.80;;;;;;5009399;28;20133;-78
2022/09/23 11:56:14;;;;;;;13.68;9.73;;;15.00;71.80;;;;;;5006727;28;20046;-78
2022/09/23 11:58:48;;;;;;;13.60;9.60;;;15.00;71.80;;;;;;5008963;28;20058;-78
2022/09/23 12:01:23;;;;;;;14.00;9.20;;;15.00;71.70;;;;;;5013983;28;20065;-77
2022/09/23 12:03:58;;;;;;;15.73;10.80;;;15.00;71.70;;;;;;5013486;28;20278;-77
2022/09/23 12:06:32;;;;;;;13.98;10.18;;;15.00;71.70;;;;;;5005268;28;20089;-78
2022/09/23 12:09:06;;;;;;;13.23;9.23;;;15.00;71.80;;;;;;5013264;28;20494;-79
2022/09/23 12:11:41;;;;;;;13.25;9.27;;;15.00;71.70;;;;;;5011888;28;20085;-78
2022/09/23 12:14:15;;;;;;;15.17;9.80;;;15.00;71.60;;;;;;5010050;28;20070;-78
2022/09/23 12:17:06;;;;;;;15.88;11.23;;;15.10;71.80;;;;;;5012657;28;20262;-78
2022/09/23 12:19:54;;;;;;;16.00;9.95;;;15.10;71.80;;;;;;5008888;28;20050;-78
2022/09/23 12:22:39;;;;;;;13.95;9.32;;;15.20;71.80;;;;;;5027914;28;20050;-78
2022/09/23 12:25:26;;;;;;;14.23;9.10;;;15.20;71.80;;;;;;5013181;28;20210;-78
2022/09/23 12:27:56;;;;;;;13.93;9.37;;;15.20;71.70;;;;;;5028079;28;20051;-79
2022/09/23 12:30:27;;;;;;;11.57;8.25;;;15.30;71.20;;;;;;5012465;28;20286;-78
2022/09/23 12:33:07;;;;;;;12.35;9.13;;;15.30;71.10;;;;;;5013295;28;20074;-79
2022/09/23 12:35:40;;;;;;;11.68;8.63;;;15.30;71.00;;;;;;5010992;28;20528;-79
2022/09/23 12:38:14;;;;;;;13.63;9.43;;;15.30;70.90;;;;;;5009519;28;20137;-78
2022/09/23 12:40:43;;;;;;;12.70;9.10;;;15.30;70.80;;;;;;5009214;28;20081;-79
2022/09/23 12:43:17;;;;;;;13.55;8.90;;;15.30;70.80;;;;;;5011932;28;20258;-79
2022/09/23 12:45:44;;;;;;;11.48;8.10;;;15.30;70.90;;;;;;5023292;28;20054;-79
2022/09/23 12:48:43;;;;;;;11.23;7.90;;;15.40;70.90;;;;;;5027761;28;20084;-78
2022/09/23 12:51:20;;;;;;;11.85;8.18;;;15.40;70.80;;;;;;4994513;28;20046;-78
2022/09/23 12:54:22;;;;;;;12.60;8.10;;;15.40;70.80;;;;;;5009909;28;20074;-77
2022/09/23 12:57:10;;;;;;;11.57;8.10;;;15.40;70.60;;;;;;5010243;28;20262;-75
2022/09/23 12:59:58;;;;;;;10.50;8.00;;;15.40;70.50;;;;;;5007575;28;20061;-77
2022/09/23 13:02:29;;;;;;;12.23;8.88;;;15.40;70.70;;;;;;5010587;28;20423;-79
2022/09/23 13:07:50;;;;;;;10.87;8.23;;;15.50;71.00;;;;;;5008356;28;20492;-78
2022/09/23 13:10:23;;;;;;;13.65;8.98;;;15.50;71.00;;;;;;5011647;28;20323;-77